Portada
METAR-TAF:

METAR-TAF

Aeroports :

Northolt, Anglaterra

latitud: 51-33N, longitud: 000-25W, altitud: 38 m

Observació

L'informe es va fer fa 29 minuts, a les 08:24 UTC
Vent 9 kt del Oest
Temperatura 18°C
Humitat 68%
Pressió 1025 hPa
Visibilitat 10 km o més
Escasses núvols a una alçada de 2000 ft
Núvols disperses a una alçada de 25000 ft

METAR: EGWU 220824Z 26009KT 9999 FEW020 SCT250 18/12 Q1025 NOSIG RMK BLU BLU

Hora: 09:53 (08:53 UTC)

Pronòstic

L'informe es va fer fa 1 hora i 5 minuts, a les 07:48 UTC
Pronòstic vàlid del 22 a les 09 UTC al 23 a les 03 UTC
Vent 10 kt del Sud-Oest
Visibilitat 10 km o més
Escasses núvols a una alçada de 3000 ft
Evolucionant progressivament
l' 23 a les 00 UTC al 23 a les 03 UTC
Visibilitat: 6000 m
boirina

TAF: EGWU 220748Z 2209/2303 23010KT 9999 FEW030 BECMG 2300/2303 6000 BR

Observacions i pronòstics meteorològics de més de 4000 aeroports (METAR i TAF).

Les estacions disponibles són els punts grocs i vermells al mapa.

Posi el ratolí al punt desitjat per veure el nom de l'estació.

Feu clic per veure les observacions i els pronòstics meteorològics.

Per canviar el mapa: feu clic els botons verds amb una creu de color negre per apropar; al botó verd amb un guió per allunyar la imatge; o en les fletxes verdes per a mapes adjacents.


METAR-TAF: